Time;durP1;ratioP1;P1;durP2;ratioP2;P2;SDS_P1;SDS_P2;PMS_P1;PMS_P2;Temp;Humidity;BMP_temperature;BMP_pressure;BME280_temperature;BME280_humidity;BME280_pressure;Samples;Min_cycle;Max_cycle;Signal;HPM_P1;HPM_P2
2023/10/01 00:00:16;;;;;;;13.43;11.32;;;;;;;17.13;53.25;99376.69;5032440;28;20029;-63
2023/10/01 00:02:42;;;;;;;16.85;11.18;;;;;;;17.11;53.30;99373.31;5031695;28;20040;-64
2023/10/01 00:05:09;;;;;;;16.92;11.93;;;;;;;17.07;53.33;99367.41;5031562;28;20049;-63
2023/10/01 00:07:39;;;;;;;20.05;11.57;;;;;;;17.02;53.43;99363.59;5032822;28;20037;-61
2023/10/01 00:10:12;;;;;;;17.15;11.77;;;;;;;17.01;53.55;99372.72;5032273;28;20129;-57
2023/10/01 00:12:40;;;;;;;17.38;11.23;;;;;;;16.89;53.70;99353.31;5031496;28;20449;-63
2023/10/01 00:15:10;;;;;;;19.70;11.73;;;;;;;16.91;53.82;99378.31;5047848;28;20052;-62
2023/10/01 00:17:38;;;;;;;17.90;10.93;;;;;;;16.87;53.84;99367.00;5051202;28;20056;-63
2023/10/01 00:20:09;;;;;;;17.90;11.73;;;;;;;16.77;53.87;99367.19;5051659;28;20391;-63
2023/10/01 00:22:37;;;;;;;20.25;11.43;;;;;;;16.82;54.05;99357.72;5050774;28;20075;-62
2023/10/01 00:25:06;;;;;;;15.68;11.05;;;;;;;16.75;54.25;99360.28;5051192;28;20028;-62
2023/10/01 00:27:32;;;;;;;15.88;11.93;;;;;;;16.69;54.28;99353.72;5032374;28;20061;-64
2023/10/01 00:29:57;;;;;;;16.90;12.77;;;;;;;16.61;54.54;99351.03;5032476;28;20083;-63
2023/10/01 00:32:23;;;;;;;17.73;11.45;;;;;;;16.56;54.96;99345.31;5031429;28;20068;-63
2023/10/01 00:34:48;;;;;;;21.42;11.18;;;;;;;16.53;54.58;99343.84;5038296;28;20083;-63
2023/10/01 00:37:14;;;;;;;16.52;11.30;;;;;;;16.47;54.75;99339.09;5051058;28;20041;-62
2023/10/01 00:39:39;;;;;;;18.85;11.73;;;;;;;16.35;55.05;99325.13;5051228;28;20115;-63
2023/10/01 00:42:06;;;;;;;15.25;12.00;;;;;;;16.34;55.31;99340.50;5050942;28;20033;-63
2023/10/01 00:44:34;;;;;;;22.63;11.30;;;;;;;16.27;55.58;99333.25;5051783;28;20056;-60
2023/10/01 00:47:04;;;;;;;21.58;11.45;;;;;;;16.26;55.86;99336.97;5050363;28;20085;-62
2023/10/01 00:49:31;;;;;;;16.55;11.45;;;;;;;16.16;55.71;99332.63;5044040;28;20107;-63
2023/10/01 00:51:56;;;;;;;18.00;11.88;;;;;;;16.19;55.67;99334.97;5014044;28;20103;-63
2023/10/01 00:54:22;;;;;;;24.48;11.88;;;;;;;16.13;55.79;99327.53;5049380;28;20024;-63
2023/10/01 00:56:50;;;;;;;17.48;12.10;;;;;;;16.11;56.01;99329.59;5051955;28;20071;-63
2023/10/01 00:59:16;;;;;;;16.05;11.40;;;;;;;16.09;56.09;99326.22;5051373;28;20025;-63
2023/10/01 01:01:43;;;;;;;13.80;11.15;;;;;;;16.04;56.36;99339.38;5051781;28;20029;-62
2023/10/01 01:04:17;;;;;;;19.70;11.45;;;;;;;16.01;56.40;99339.75;5054946;28;20051;-61
2023/10/01 01:06:47;;;;;;;14.57;11.88;;;;;;;16.01;56.65;99345.13;5054978;28;20036;-63
2023/10/01 01:09:15;;;;;;;19.35;11.75;;;;;;;15.82;56.48;99314.75;5036884;28;20033;-63
2023/10/01 01:11:40;;;;;;;17.25;10.55;;;;;;;15.98;56.43;99337.38;5034607;28;20041;-61
2023/10/01 01:14:07;;;;;;;17.73;11.63;;;;;;;16.02;56.47;99346.81;5034297;28;20045;-63
2023/10/01 01:16:33;;;;;;;15.52;11.27;;;;;;;15.97;56.20;99333.00;5040778;28;20048;-62
2023/10/01 01:19:00;;;;;;;15.07;11.27;;;;;;;15.69;56.22;99282.06;5054599;28;20040;-62
2023/10/01 01:21:25;;;;;;;18.15;11.43;;;;;;;15.96;56.46;99339.41;5054568;28;20174;-61
2023/10/01 01:23:51;;;;;;;18.48;12.10;;;;;;;15.93;56.32;99333.34;5054652;28;20405;-62
2023/10/01 01:26:23;;;;;;;18.75;12.15;;;;;;;15.95;56.31;99335.84;5052417;28;20115;-62
2023/10/01 01:28:48;;;;;;;17.50;11.43;;;;;;;15.77;56.31;99300.94;5053493;28;20060;-63
2023/10/01 01:31:16;;;;;;;15.43;11.40;;;;;;;15.73;56.36;99303.13;5054110;28;20133;-62
2023/10/01 01:33:44;;;;;;;17.00;12.02;;;;;;;15.86;56.62;99329.59;5054870;28;20134;-61
2023/10/01 01:36:12;;;;;;;16.27;12.18;;;;;;;15.89;56.56;99334.69;5052355;28;20025;-57
2023/10/01 01:39:09;;;;;;;17.90;11.65;;;;;;;16.00;56.47;99332.66;5044573;28;20044;-63
2023/10/01 01:41:42;;;;;;;17.40;11.20;;;;;;;15.88;56.45;99335.69;5034750;28;20045;-62
2023/10/01 01:44:13;;;;;;;17.42;11.70;;;;;;;15.89;56.65;99325.75;5034558;28;20030;-62
2023/10/01 01:46:47;;;;;;;17.10;12.38;;;;;;;15.85;56.56;99325.22;5040652;28;20086;-62
2023/10/01 01:49:17;;;;;;;24.20;12.00;;;;;;;15.85;56.12;99327.91;5052758;28;20375;-63
2023/10/01 01:51:56;;;;;;;18.88;12.43;;;;;;;15.77;56.80;99322.53;5053972;28;20033;-61
2023/10/01 01:54:30;;;;;;;15.45;11.85;;;;;;;15.83;56.81;99326.41;5054398;28;20021;-62
2023/10/01 01:56:56;;;;;;;20.65;12.40;;;;;;;15.74;56.65;99314.78;5054107;28;20059;-64
2023/10/01 01:59:30;;;;;;;18.45;12.20;;;;;;;15.71;56.81;99313.25;5042272;28;20132;-66
2023/10/01 02:01:56;;;;;;;16.20;12.27;;;;;;;15.71;56.74;99307.03;5035033;28;20040;-62
2023/10/01 02:04:23;;;;;;;19.20;11.65;;;;;;;15.74;56.72;99312.06;5033422;28;20140;-63
2023/10/01 02:06:52;;;;;;;16.75;12.30;;;;;;;15.68;57.00;99302.78;5033405;28;20449;-61
2023/10/01 02:09:24;;;;;;;16.58;11.00;;;;;;;15.68;56.88;99301.97;5033770;28;20168;-62
2023/10/01 02:11:52;;;;;;;20.98;11.52;;;;;;;15.62;57.01;99300.78;5034267;28;20057;-62
2023/10/01 02:14:30;;;;;;;17.38;12.00;;;;;;;15.52;57.42;99286.59;5033040;28;20084;-61
2023/10/01 02:17:13;;;;;;;15.20;11.25;;;;;;;15.48;57.24;99283.44;5035085;28;20384;-62
2023/10/01 02:19:39;;;;;;;16.70;11.73;;;;;;;15.44;57.77;99291.00;5034237;28;20063;-63
2023/10/01 02:22:05;;;;;;;16.02;10.90;;;;;;;15.45;57.55;99286.47;5044547;28;20029;-62
2023/10/01 02:27:26;;;;;;;20.37;11.20;;;;;;;15.44;57.50;99295.56;5053323;28;20037;-62
2023/10/01 02:32:35;;;;;;;20.13;11.07;;;;;;;15.36;57.69;99285.63;5053762;28;20032;-62
2023/10/01 02:35:33;;;;;;;23.15;11.57;;;;;;;15.33;57.69;99283.25;5053028;28;20351;-62
2023/10/01 02:37:47;;;;;;;;;;;;;;;15.64;56.39;99279.88;5034356;28;20104;-62
2023/10/01 02:40:14;;;;;;;;;;;;;;;15.73;55.33;99278.84;5034230;28;19917;-55
2023/10/01 02:42:39;;;;;;;13.60;9.98;;;;;;;15.45;56.96;99276.50;5048641;28;19917;-62
2023/10/01 02:45:30;;;;;;;16.60;11.05;;;;;;;15.31;57.62;99275.31;5052819;28;20094;-62
2023/10/01 02:48:13;;;;;;;;;;;;;;;15.63;56.03;99278.19;5053433;28;20029;-63
2023/10/01 02:50:36;;;;;;;17.20;11.93;;;;;;;15.42;57.31;99271.44;5053290;28;20038;-62
2023/10/01 02:53:03;;;;;;;18.80;11.50;;;;;;;15.39;57.55;99276.31;5053241;28;20044;-61
2023/10/01 02:55:31;;;;;;;19.98;11.07;;;;;;;15.38;57.60;99277.34;5039315;28;20035;-63
2023/10/01 02:58:02;;;;;;;17.13;10.48;;;;;;;15.48;57.52;99280.72;5033060;28;20103;-63
2023/10/01 03:00:31;;;;;;;14.90;10.98;;;;;;;15.52;57.46;99275.81;5033444;28;20032;-63
2023/10/01 03:02:59;;;;;;;19.38;10.60;;;;;;;15.55;57.14;99281.72;5033191;28;20029;-62
2023/10/01 03:05:31;;;;;;;18.75;11.32;;;;;;;15.38;57.12;99243.13;5032715;28;20040;-63
2023/10/01 03:08:03;;;;;;;13.38;10.57;;;;;;;15.60;56.72;99278.53;5032714;28;20120;-64
2023/10/01 03:10:31;;;;;;;18.48;10.98;;;;;;;15.45;56.88;99256.78;5033222;28;20034;-62
2023/10/01 03:13:00;;;;;;;14.95;11.30;;;;;;;15.48;56.97;99264.53;5037619;28;20344;-61
2023/10/01 03:15:28;;;;;;;16.88;11.30;;;;;;;15.57;57.17;99268.91;5052416;28;20068;-63
2023/10/01 03:17:56;;;;;;;16.60;11.38;;;;;;;15.56;57.01;99269.91;5052329;28;20037;-62
2023/10/01 03:23:17;;;;;;;15.27;10.90;;;;;;;15.53;57.19;99255.91;5052342;28;20127;-61
2023/10/01 03:25:56;;;;;;;17.48;11.38;;;;;;;15.49;57.16;99260.84;5052605;28;20025;-63
2023/10/01 03:28:27;;;;;;;18.90;11.32;;;;;;;15.47;57.34;99260.16;5052124;28;20119;-62
2023/10/01 03:31:06;;;;;;;18.55;11.50;;;;;;;15.21;57.41;99216.16;5048790;28;20463;-62
2023/10/01 03:33:33;;;;;;;20.83;11.10;;;;;;;15.51;57.05;99261.50;5033403;28;20026;-62
2023/10/01 03:35:59;;;;;;;24.42;11.20;;;;;;;15.40;56.96;99214.13;5032641;28;20075;-62
2023/10/01 03:38:25;;;;;;;17.00;11.68;;;;;;;15.63;56.92;99245.81;5032036;28;20056;-62
2023/10/01 03:41:02;;;;;;;17.92;11.32;;;;;;;15.64;56.66;99234.81;5032298;28;20029;-62
2023/10/01 03:43:37;;;;;;;15.93;10.63;;;;;;;15.79;56.24;99244.94;5032655;28;20033;-62
2023/10/01 03:46:19;;;;;;;15.90;10.30;;;;;;;15.85;56.15;99233.44;5031214;28;20040;-62
2023/10/01 03:48:58;;;;;;;20.00;11.13;;;;;;;15.91;55.98;99246.28;5033336;28;20033;-62
2023/10/01 03:51:58;;;;;;;19.27;11.10;;;;;;;16.02;55.95;99238.81;5032498;28;20052;-62
2023/10/01 03:57:19;;;;;;;;;;;;;;;16.44;54.49;99264.66;5032412;28;20073;-62
2023/10/01 03:59:52;;;;;;;14.73;10.27;;;;;;;16.34;54.65;99242.41;5032888;28;19921;-62
2023/10/01 04:02:28;;;;;;;15.93;10.98;;;;;;;16.20;54.30;99219.69;5033602;28;20034;-61
2023/10/01 04:04:58;;;;;;;19.00;11.55;;;;;;;16.45;54.23;99249.28;5051727;28;20191;-62
2023/10/01 04:07:26;;;;;;;17.92;11.60;;;;;;;16.39;54.11;99223.78;5050327;28;20031;-62
2023/10/01 04:09:55;;;;;;;16.98;11.23;;;;;;;16.46;53.92;99219.38;5052030;28;20099;-63
2023/10/01 04:12:28;;;;;;;15.27;11.50;;;;;;;16.73;53.55;99252.34;5050560;28;20367;-60
2023/10/01 04:15:01;;;;;;;16.80;11.65;;;;;;;17.05;52.73;99244.22;5052100;28;20032;-63
2023/10/01 04:17:28;;;;;;;16.63;11.20;;;;;;;17.46;51.51;99233.03;5052218;28;20375;-63
2023/10/01 04:19:57;;;;;;;19.25;11.18;;;;;;;17.54;50.82;99218.59;5032238;28;20428;-62
2023/10/01 04:22:25;;;;;;;15.65;10.88;;;;;;;17.60;50.96;99223.28;5030219;28;20457;-62
2023/10/01 04:25:01;;;;;;;12.30;11.00;;;;;;;17.57;51.24;99244.47;5032986;28;20428;-60
2023/10/01 04:27:34;;;;;;;20.65;11.55;;;;;;;17.86;50.30;99234.69;5032205;28;20366;-62
2023/10/01 04:30:07;;;;;;;17.60;11.85;;;;;;;18.13;49.55;99229.66;5031554;28;20440;-61
2023/10/01 04:32:33;;;;;;;16.85;11.43;;;;;;;18.28;49.04;99232.38;5031546;28;20037;-62
2023/10/01 04:34:59;;;;;;;18.20;11.93;;;;;;;18.59;48.61;99236.72;5031157;28;20090;-62
2023/10/01 04:37:37;;;;;;;20.52;11.13;;;;;;;19.68;46.09;99233.97;5033707;28;20051;-65
2023/10/01 04:40:07;;;;;;;18.92;11.75;;;;;;;21.23;42.69;99235.50;5037475;28;20036;-63
2023/10/01 04:42:37;;;;;;;19.40;10.57;;;;;;;22.19;40.10;99237.91;5054962;28;20045;-64
2023/10/01 04:45:22;;;;;;;17.27;10.77;;;;;;;23.08;38.45;99235.38;5049274;28;20136;-65
2023/10/01 04:47:55;;;;;;;19.80;12.18;;;;;;;23.34;37.16;99236.28;5048833;28;20032;-65
2023/10/01 04:50:27;;;;;;;14.98;10.75;;;;;;;22.89;38.39;99233.63;5037464;28;20534;-64
2023/10/01 04:52:57;;;;;;;16.92;11.45;;;;;;;22.26;39.37;99230.53;5035109;28;20049;-63
2023/10/01 04:55:25;;;;;;;19.52;11.00;;;;;;;21.41;40.94;99199.47;5041380;28;20428;-66
2023/10/01 04:57:51;;;;;;;15.88;11.13;;;;;;;21.32;41.04;99236.09;5054338;28;20033;-63
2023/10/01 05:00:21;;;;;;;16.92;11.57;;;;;;;21.20;41.44;99246.78;5054876;28;20090;-66
2023/10/01 05:02:49;;;;;;;16.60;10.88;;;;;;;20.78;42.60;99247.75;5049445;28;20030;-65
2023/10/01 05:05:25;;;;;;;18.23;11.38;;;;;;;20.29;43.73;99246.09;5046412;28;20120;-63
2023/10/01 05:07:57;;;;;;;;;;;;;;;20.46;43.74;99239.25;5044889;28;20059;-64
2023/10/01 05:10:26;;;;;;;13.73;11.00;;;;;;;19.43;45.09;99223.56;5043381;28;20311;-62
2023/10/01 05:13:02;;;;;;;15.30;10.43;;;;;;;19.12;46.58;99232.91;5043708;28;20055;-61
2023/10/01 05:15:37;;;;;;;18.80;11.23;;;;;;;18.86;47.54;99232.41;5044233;28;20483;-62
2023/10/01 05:18:04;;;;;;;17.77;10.98;;;;;;;18.60;48.51;99252.78;5044548;28;20052;-61
2023/10/01 05:20:31;;;;;;;17.73;11.32;;;;;;;18.33;50.01;99246.22;5047128;28;20025;-62
2023/10/01 05:22:59;;;;;;;18.25;11.18;;;;;;;18.10;50.68;99247.16;5054596;28;20064;-62
2023/10/01 05:25:26;;;;;;;20.48;11.50;;;;;;;17.83;52.04;99243.19;5048904;28;20076;-62
2023/10/01 05:27:56;;;;;;;17.20;12.27;;;;;;;17.74;52.59;99245.13;5034298;28;20056;-61
2023/10/01 05:30:38;;;;;;;16.08;11.45;;;;;;;17.47;52.61;99233.91;5036215;28;20033;-61
2023/10/01 05:33:07;;;;;;;19.70;12.40;;;;;;;17.39;53.52;99236.69;5050933;28;20123;-60
2023/10/01 05:35:41;;;;;;;19.05;11.95;;;;;;;17.39;54.64;99261.03;5054534;28;20025;-65
2023/10/01 05:38:10;;;;;;;18.63;12.18;;;;;;;17.25;54.74;99238.34;5054843;28;20028;-64
2023/10/01 05:40:39;;;;;;;16.60;11.63;;;;;;;17.16;55.12;99229.44;5047323;28;20116;-65
2023/10/01 05:43:14;;;;;;;18.50;12.38;;;;;;;17.17;55.65;99233.81;5042883;28;20112;-65
2023/10/01 05:45:50;;;;;;;23.20;12.98;;;;;;;17.18;55.71;99257.16;5042148;28;20041;-68
2023/10/01 05:48:19;;;;;;;18.95;12.68;;;;;;;16.92;56.66;99240.22;5041745;28;20415;-63
2023/10/01 05:50:46;;;;;;;18.20;12.65;;;;;;;16.83;57.50;99252.13;5040870;28;20472;-64
2023/10/01 05:53:13;;;;;;;17.42;12.43;;;;;;;16.73;58.12;99256.91;5043555;28;20029;-63
2023/10/01 05:55:41;;;;;;;20.42;13.27;;;;;;;16.59;58.19;99248.53;5044509;28;20215;-63
2023/10/01 05:58:13;;;;;;;18.88;12.57;;;;;;;16.49;59.16;99240.66;5039001;28;20025;-63
2023/10/01 06:00:45;;;;;;;17.27;12.85;;;;;;;16.50;59.77;99258.53;5033737;28;20030;-64
2023/10/01 06:03:15;;;;;;;17.60;12.43;;;;;;;16.50;59.62;99246.88;5034232;28;20029;-63
2023/10/01 06:08:15;;;;;;;20.10;13.40;;;;;;;16.32;60.89;99252.53;5051316;28;20478;-64
2023/10/01 06:11:07;;;;;;;18.60;13.32;;;;;;;16.39;60.79;99264.31;5035443;28;20036;-63
2023/10/01 06:13:38;;;;;;;19.27;13.65;;;;;;;16.32;60.70;99266.06;5032887;28;20072;-64
2023/10/01 06:16:13;;;;;;;21.92;13.20;;;;;;;16.06;61.68;99245.56;5033819;28;20048;-63
2023/10/01 06:18:50;;;;;;;18.48;13.07;;;;;;;16.25;62.30;99259.69;5053343;28;20029;-63
2023/10/01 06:21:23;;;;;;;21.77;14.05;;;;;;;16.24;62.22;99263.38;5053678;28;20040;-62
2023/10/01 06:23:49;;;;;;;19.63;14.10;;;;;;;16.14;62.50;99264.41;5053367;28;20048;-62
2023/10/01 06:26:19;;;;;;;21.50;14.27;;;;;;;15.90;62.89;99246.44;5037319;28;20045;-64
2023/10/01 06:28:46;;;;;;;20.00;14.10;;;;;;;15.82;63.79;99259.94;5033054;28;20034;-64
2023/10/01 06:31:12;;;;;;;20.80;14.57;;;;;;;15.74;65.17;99295.88;5033750;28;20450;-63
2023/10/01 06:33:38;;;;;;;18.48;14.30;;;;;;;15.65;65.24;99290.47;5046258;28;20125;-63
2023/10/01 06:36:16;;;;;;;21.67;14.00;;;;;;;15.57;65.69;99286.97;5052809;28;20032;-64
2023/10/01 06:38:47;;;;;;;18.10;13.18;;;;;;;15.57;65.76;99292.38;5052550;28;20443;-62
2023/10/01 06:41:18;;;;;;;20.35;14.32;;;;;;;15.52;66.33;99292.88;5053258;28;20352;-62
2023/10/01 06:43:48;;;;;;;18.58;14.27;;;;;;;15.44;67.08;99290.19;5051623;28;20025;-63
2023/10/01 06:46:22;;;;;;;15.98;13.27;;;;;;;15.41;67.60;99295.88;5052131;28;20464;-63
2023/10/01 06:48:51;;;;;;;18.55;13.15;;;;;;;15.48;68.47;99300.44;5050973;28;20035;-64
2023/10/01 06:51:25;;;;;;;17.77;12.10;;;;;;;15.46;68.00;99302.47;5053081;28;20056;-64
2023/10/01 06:54:05;;;;;;;15.43;11.57;;;;;;;15.40;67.42;99300.44;5053201;28;20043;-63
2023/10/01 06:56:35;;;;;;;17.70;11.65;;;;;;;15.41;67.55;99295.88;5051026;28;20435;-66
2023/10/01 07:01:34;;;;;;;14.30;10.48;;;;;;;15.54;67.96;99311.56;5049024;28;20068;-64
2023/10/01 07:04:06;;;;;;;15.48;9.85;;;;;;;15.44;67.57;99280.22;5033648;28;20131;-65
2023/10/01 07:06:34;;;;;;;13.48;10.25;;;;;;;15.52;67.45;99290.16;5032947;28;20017;-65
2023/10/01 07:09:00;;;;;;;16.70;10.90;;;;;;;15.63;68.02;99315.97;5031993;28;20038;-66
2023/10/01 07:11:28;;;;;;;13.88;10.32;;;;;;;15.65;67.79;99313.94;5032946;28;20060;-65
2023/10/01 07:13:56;;;;;;;15.30;10.02;;;;;;;15.67;67.73;99305.66;5045180;28;20087;-67
2023/10/01 07:16:39;;;;;;;11.77;9.88;;;;;;;15.68;67.73;99318.16;5045469;28;20049;-66
2023/10/01 07:19:11;;;;;;;12.60;10.40;;;;;;;15.70;67.81;99321.53;5041768;28;20365;-66
2023/10/01 07:21:41;;;;;;;12.70;9.30;;;;;;;15.67;67.52;99327.25;5041672;28;20042;-65
2023/10/01 07:24:11;;;;;;;11.77;9.85;;;;;;;15.63;68.01;99330.28;5042588;28;20037;-64
2023/10/01 07:26:41;;;;;;;10.90;9.73;;;;;;;15.60;68.23;99319.84;5035681;28;20029;-67
2023/10/01 07:29:07;;;;;;;12.00;10.20;;;;;;;15.57;68.62;99312.06;5032532;28;20119;-66
2023/10/01 07:31:35;;;;;;;10.32;9.23;;;;;;;15.43;68.22;99292.00;5040136;28;20336;-66
2023/10/01 07:34:12;;;;;;;13.15;9.50;;;;;;;15.49;68.06;99293.22;5052600;28;20050;-63
2023/10/01 07:36:42;;;;;;;11.68;9.15;;;;;;;15.70;67.94;99335.03;5050634;28;20371;-66
2023/10/01 07:39:13;;;;;;;11.65;9.68;;;;;;;15.65;68.15;99330.13;5033154;28;20039;-66
2023/10/01 07:41:39;;;;;;;13.73;10.43;;;;;;;15.65;68.26;99336.34;5041930;28;20452;-65
2023/10/01 07:44:08;;;;;;;13.73;9.93;;;;;;;15.65;68.47;99336.34;5046948;28;20083;-59
2023/10/01 07:46:36;;;;;;;12.50;9.82;;;;;;;15.72;68.50;99346.50;5040681;28;20411;-66
2023/10/01 07:49:05;;;;;;;13.25;9.35;;;;;;;15.71;68.05;99336.72;5045060;28;20114;-68
2023/10/01 07:51:36;;;;;;;16.45;10.85;;;;;;;15.75;68.16;99340.75;5035142;28;20076;-63
2023/10/01 07:54:09;;;;;;;15.70;8.95;;;;;;;15.75;67.75;99346.16;5030929;28;20033;-63
2023/10/01 07:56:39;;;;;;;12.43;9.30;;;;;;;15.81;67.95;99356.25;5042133;28;20033;-67
2023/10/01 08:07:28;;;;;;;11.25;8.50;;;;;;;16.00;67.19;99359.66;5040315;28;20029;-65
2023/10/01 08:09:57;;;;;;;14.02;9.43;;;;;;;16.09;66.88;99364.00;5052086;28;20040;-67
2023/10/01 08:15:15;;;;;;;12.77;9.07;;;;;;;16.33;65.77;99365.84;5051489;28;20302;-68
2023/10/01 08:17:43;;;;;;;11.23;8.38;;;;;;;16.43;65.76;99364.78;5036239;28;20165;-64
2023/10/01 08:20:21;;;;;;;11.15;8.10;;;;;;;16.48;65.63;99357.84;5038228;28;20439;-70
2023/10/01 08:25:32;;;;;;;11.97;8.10;;;;;;;16.76;64.08;99368.22;5046064;28;20048;-65
2023/10/01 08:30:43;;;;;;;10.45;7.72;;;;;;;16.83;63.29;99381.03;5044802;28;20032;-66
2023/10/01 08:33:32;;;;;;;11.85;7.72;;;;;;;16.90;62.41;99373.91;5044795;28;20043;-64
2023/10/01 08:36:12;;;;;;;11.23;7.65;;;;;;;17.07;62.10;99366.59;5046516;28;20029;-64
2023/10/01 08:39:20;;;;;;;11.70;7.40;;;;;;;17.25;61.98;99336.56;5045541;28;20033;-65
2023/10/01 08:41:50;;;;;;;10.18;7.55;;;;;;;17.58;60.78;99347.13;5045253;28;20333;-64
2023/10/01 08:44:30;;;;;;;13.57;7.93;;;;;;;17.94;60.35;99373.56;5045444;28;20131;-65
2023/10/01 08:46:59;;;;;;;12.27;7.38;;;;;;;18.06;59.30;99365.88;5043422;28;20043;-65
2023/10/01 08:49:30;;;;;;;11.02;7.65;;;;;;;18.09;58.76;99367.38;5040393;28;20041;-63
2023/10/01 08:52:19;;;;;;;9.50;7.38;;;;;;;18.14;58.27;99362.25;5042824;28;20509;-64
2023/10/01 08:54:45;;;;;;;12.35;6.82;;;;;;;18.16;57.87;99360.19;5053467;28;20044;-65
2023/10/01 08:57:18;;;;;;;13.40;6.28;;;;;;;18.17;57.68;99363.72;5054672;28;20508;-63
2023/10/01 08:59:46;;;;;;;14.13;6.47;;;;;;;18.14;57.62;99359.53;5053466;28;20364;-64
2023/10/01 09:02:16;;;;;;;11.00;6.00;;;;;;;18.08;57.61;99376.50;5054607;28;20044;-64
2023/10/01 09:04:47;;;;;;;8.32;5.60;;;;;;;17.91;57.33;99356.84;5053465;28;20029;-64
2023/10/01 09:07:18;;;;;;;9.65;5.88;;;;;;;18.14;57.25;99380.34;5054333;28;20028;-64
2023/10/01 09:09:52;;;;;;;9.75;5.63;;;;;;;18.19;56.18;99373.38;5039491;28;20116;-64
2023/10/01 09:12:19;;;;;;;11.88;6.10;;;;;;;18.27;55.49;99382.44;5034624;28;20053;-65
2023/10/01 09:14:46;;;;;;;11.57;4.72;;;;;;;18.28;55.16;99367.84;5034938;28;20045;-64
2023/10/01 09:17:26;;;;;;;11.00;4.63;;;;;;;18.46;55.43;99362.09;5054506;28;20096;-65
2023/10/01 09:19:51;;;;;;;8.38;4.90;;;;;;;18.53;55.09;99375.72;5054587;28;20108;-64
2023/10/01 09:25:14;;;;;;;7.88;5.28;;;;;;;19.01;54.52;99354.47;5054561;28;20111;-65
2023/10/01 09:31:19;;;;;;;8.10;4.55;;;;;;;19.38;53.48;99388.91;5053245;28;20124;-64
2023/10/01 09:33:48;;;;;;;10.82;5.35;;;;;;;19.21;52.96;99386.41;5054149;28;20050;-63
2023/10/01 09:36:35;;;;;;;13.00;4.60;;;;;;;19.20;53.40;99390.16;5053477;28;20476;-64
2023/10/01 09:39:03;;;;;;;9.60;4.20;;;;;;;18.85;52.02;99395.34;5049067;28;20025;-64
2023/10/01 09:41:43;;;;;;;8.52;3.83;;;;;;;18.87;52.50;99406.84;5034206;28;20034;-64
2023/10/01 09:44:14;;;;;;;6.97;3.58;;;;;;;18.85;52.50;99406.19;5034462;28;20025;-64
2023/10/01 09:46:40;;;;;;;8.38;3.83;;;;;;;19.01;52.65;99394.31;5034538;28;20096;-65
2023/10/01 09:49:07;;;;;;;8.98;4.00;;;;;;;19.25;51.53;99404.00;5034942;28;20038;-63
2023/10/01 09:51:41;;;;;;;8.40;3.50;;;;;;;19.39;51.11;99407.69;5034498;28;20112;-63
2023/10/01 09:54:11;;;;;;;8.35;3.08;;;;;;;19.43;50.52;99409.00;5034456;28;20131;-63
2023/10/01 09:59:08;;;;;;;8.90;3.40;;;;;;;19.54;50.12;99415.81;5034675;28;20040;-64
2023/10/01 10:01:36;;;;;;;6.53;2.92;;;;;;;19.68;49.63;99410.50;5037512;28;20104;-64
2023/10/01 10:04:07;;;;;;;7.47;3.25;;;;;;;19.88;48.81;99414.25;5034410;28;20025;-63
2023/10/01 10:06:34;;;;;;;8.73;3.45;;;;;;;20.02;48.65;99412.53;5033902;28;20033;-64
2023/10/01 10:09:06;;;;;;;7.97;3.78;;;;;;;20.05;48.86;99423.00;5033657;28;20420;-63
2023/10/01 10:11:36;;;;;;;9.35;3.25;;;;;;;20.06;48.79;99418.41;5034638;28;20036;-63
2023/10/01 10:14:25;;;;;;;7.50;3.20;;;;;;;20.35;48.48;99427.41;5034390;28;20080;-64
2023/10/01 10:16:57;;;;;;;9.48;3.40;;;;;;;20.44;48.13;99434.38;5034456;28;20075;-63
2023/10/01 10:19:24;;;;;;;10.80;3.28;;;;;;;20.39;46.36;99417.00;5033494;28;20112;-63
2023/10/01 10:24:37;;;;;;;5.60;2.55;;;;;;;19.89;46.23;99369.75;5040010;28;20059;-65
2023/10/01 10:27:08;;;;;;;7.38;2.78;;;;;;;20.07;46.37;99420.91;5051530;28;20420;-64
2023/10/01 10:30:05;;;;;;;5.95;2.78;;;;;;;20.10;47.07;99430.56;5032854;28;20034;-65
2023/10/01 10:32:42;;;;;;;5.72;2.58;;;;;;;19.80;46.93;99430.69;5034620;28;20045;-63
2023/10/01 10:35:14;;;;;;;8.88;2.83;;;;;;;19.57;47.99;99425.44;5039068;28;20055;-63
2023/10/01 10:37:53;;;;;;;6.40;2.88;;;;;;;19.45;47.53;99420.53;5053162;28;20063;-63
2023/10/01 10:42:46;;;;;;;9.85;3.20;;;;;;;19.53;47.21;99424.97;5053504;28;20140;-63
2023/10/01 10:45:19;;;;;;;6.50;2.90;;;;;;;19.79;47.12;99418.16;5052068;28;20499;-64
2023/10/01 10:50:45;;;;;;;8.35;3.40;;;;;;;20.41;46.04;99413.03;5032270;28;20345;-62
2023/10/01 10:53:17;;;;;;;10.38;2.90;;;;;;;20.36;45.68;99424.47;5035323;28;20029;-64
2023/10/01 10:56:05;;;;;;;5.70;2.83;;;;;;;20.37;45.65;99419.91;5051077;28;20610;-63
2023/10/01 10:59:03;;;;;;;8.25;3.25;;;;;;;20.16;45.58;99418.91;5052166;28;20467;-64
2023/10/01 11:01:46;;;;;;;6.13;2.78;;;;;;;19.74;45.90;99417.88;5052530;28;20080;-65
2023/10/01 11:04:13;;;;;;;6.00;2.80;;;;;;;19.44;46.64;99426.97;5052647;28;20024;-65
2023/10/01 11:06:39;;;;;;;6.65;2.58;;;;;;;19.19;47.34;99407.47;5052867;28;20568;-64
2023/10/01 11:09:25;;;;;;;6.88;2.90;;;;;;;19.24;47.53;99421.31;5039067;28;20057;-65
2023/10/01 11:12:07;;;;;;;7.03;2.78;;;;;;;19.14;47.53;99427.03;5033611;28;20037;-64
2023/10/01 11:14:37;;;;;;;7.50;3.05;;;;;;;19.22;48.08;99423.38;5033067;28;20045;-64
2023/10/01 11:17:06;;;;;;;8.07;2.70;;;;;;;19.18;47.93;99411.22;5032829;28;20395;-63
2023/10/01 11:19:36;;;;;;;9.82;3.03;;;;;;;19.20;48.02;99418.16;5031754;28;20529;-63
2023/10/01 11:22:04;;;;;;;8.43;2.75;;;;;;;19.20;48.38;99431.72;5041114;28;20052;-63
2023/10/01 11:24:29;;;;;;;10.52;3.13;;;;;;;19.11;48.49;99427.41;5041106;28;20528;-62
2023/10/01 11:27:17;;;;;;;7.15;3.13;;;;;;;19.18;48.97;99424.78;5043286;28;20112;-63
2023/10/01 11:29:57;;;;;;;10.05;3.33;;;;;;;19.08;48.58;99431.38;5042255;28;20029;-62
2023/10/01 11:32:58;;;;;;;10.32;2.90;;;;;;;19.09;48.57;99434.91;5043462;28;20059;-64
2023/10/01 11:35:31;;;;;;;8.38;3.00;;;;;;;18.82;48.33;99433.69;5040058;28;20032;-64
2023/10/01 11:38:08;;;;;;;8.07;2.95;;;;;;;18.51;48.58;99403.84;5042586;28;20448;-64
2023/10/01 11:43:31;;;;;;;6.63;3.10;;;;;;;18.53;48.45;99398.25;5036204;28;20024;-64
2023/10/01 11:46:25;;;;;;;10.85;3.38;;;;;;;18.95;48.45;99442.00;5039276;28;20033;-62
2023/10/01 11:49:32;;;;;;;8.65;2.78;;;;;;;18.90;48.37;99441.72;5041975;28;20121;-63
2023/10/01 11:51:50;;;;;;;10.25;3.30;;;;;;;18.90;48.23;99441.72;5032776;28;20049;-63
2023/10/01 11:54:44;;;;;;;9.10;3.03;;;;;;;18.68;47.92;99444.34;5031843;28;20056;-63
2023/10/01 11:57:22;;;;;;;6.22;3.05;;;;;;;18.46;47.99;99457.78;5032790;28;20029;-63
2023/10/01 11:59:56;;;;;;;6.82;2.95;;;;;;;18.21;48.18;99458.00;5048559;28;20025;-64
2023/10/01 12:02:32;;;;;;;5.35;2.55;;;;;;;18.07;48.63;99453.38;5051923;28;20041;-64
2023/10/01 12:05:02;;;;;;;6.95;2.85;;;;;;;18.15;48.71;99466.03;5043405;28;20029;-64
2023/10/01 12:07:45;;;;;;;7.35;2.85;;;;;;;18.27;48.56;99471.84;5033460;28;20029;-63
2023/10/01 12:12:59;;;;;;;6.35;2.50;;;;;;;18.54;46.76;99446.03;5032144;28;20474;-64
2023/10/01 12:15:34;;;;;;;9.88;2.83;;;;;;;18.39;45.57;99421.59;5040609;28;20180;-64
2023/10/01 12:18:08;;;;;;;9.65;2.40;;;;;;;18.73;44.54;99463.59;5041288;28;20501;-64
2023/10/01 12:20:39;;;;;;;8.10;2.55;;;;;;;18.74;43.92;99454.44;5039080;28;20026;-64
2023/10/01 12:23:12;;;;;;;9.32;2.50;;;;;;;18.80;43.13;99444.72;5022884;28;20056;-65
2023/10/01 12:28:28;;;;;;;7.38;2.63;;;;;;;18.94;41.95;99452.03;5041437;28;20044;-63
2023/10/01 12:30:58;;;;;;;7.55;2.58;;;;;;;19.01;42.49;99449.41;5040002;28;20037;-64
2023/10/01 12:33:38;;;;;;;8.60;2.70;;;;;;;18.97;42.09;99449.97;5042678;28;20372;-64
2023/10/01 12:36:42;;;;;;;7.28;2.90;;;;;;;19.06;42.20;99457.00;5051335;28;20371;-64
2023/10/01 12:41:47;;;;;;;9.50;2.97;;;;;;;18.76;42.54;99451.56;5032638;28;20034;-63
2023/10/01 12:44:27;;;;;;;9.18;3.00;;;;;;;18.78;42.95;99465.75;5031643;28;20036;-62
2023/10/01 12:46:55;;;;;;;10.23;3.38;;;;;;;18.43;43.20;99425.63;5032982;28;20105;-65